createdAt,value
2019-03-24T00:01:52.551Z,97.10
2019-03-24T00:04:26.244Z,97.20
2019-03-24T00:07:00.168Z,97.40
2019-03-24T00:09:33.833Z,97.50
2019-03-24T00:12:07.650Z,97.50
2019-03-24T00:14:44.105Z,97.50
2019-03-24T00:17:17.745Z,97.60
2019-03-24T00:19:51.319Z,97.60
2019-03-24T00:22:25.013Z,97.60
2019-03-24T00:24:58.629Z,97.50
2019-03-24T00:27:32.437Z,97.40
2019-03-24T00:30:10.936Z,97.30
2019-03-24T00:32:44.614Z,97.10
2019-03-24T00:35:18.267Z,97.00
2019-03-24T00:37:51.941Z,96.70
2019-03-24T00:44:02.931Z,96.30
2019-03-24T00:46:36.725Z,95.80
2019-03-24T00:49:10.446Z,95.50
2019-03-24T00:51:44.159Z,95.40
2019-03-24T00:54:17.751Z,95.40
2019-03-24T01:00:46.005Z,94.80
2019-03-24T01:03:19.927Z,94.60
2019-03-24T01:05:53.646Z,94.70
2019-03-24T01:08:27.319Z,94.80
2019-03-24T01:11:01.567Z,94.80
2019-03-24T01:13:35.351Z,94.70
2019-03-24T01:16:09.200Z,94.70
2019-03-24T01:18:42.981Z,94.80
2019-03-24T01:21:16.556Z,94.80
2019-03-24T01:23:50.263Z,94.80
2019-03-24T01:26:24.088Z,95.00
2019-03-24T01:29:00.459Z,95.10
2019-03-24T01:31:34.164Z,95.20
2019-03-24T01:34:09.241Z,95.30
2019-03-24T01:36:42.838Z,95.20
2019-03-24T01:39:16.461Z,95.30
2019-03-24T01:41:50.087Z,95.40
2019-03-24T01:44:23.739Z,95.50
2019-03-24T01:46:57.292Z,95.50
2019-03-24T01:49:30.971Z,95.60
2019-03-24T01:52:04.631Z,95.60
2019-03-24T01:54:38.703Z,95.70
2019-03-24T01:57:12.401Z,95.70
2019-03-24T01:59:46.032Z,95.80
2019-03-24T02:02:19.619Z,95.90
2019-03-24T02:04:53.417Z,96.10
2019-03-24T02:07:27.185Z,96.20
2019-03-24T02:10:00.812Z,96.30
2019-03-24T02:12:34.562Z,96.30
2019-03-24T02:15:09.397Z,96.40
2019-03-24T02:17:43.166Z,96.50
2019-03-24T02:20:17.367Z,96.60
2019-03-24T02:22:51.031Z,96.70
2019-03-24T02:25:24.779Z,96.60
2019-03-24T02:27:58.463Z,96.60
2019-03-24T02:30:32.080Z,96.60
2019-03-24T02:33:05.737Z,96.70
2019-03-24T02:35:39.418Z,96.70
2019-03-24T02:38:13.145Z,96.60
2019-03-24T02:43:56.317Z,96.60
2019-03-24T02:46:29.944Z,96.70
2019-03-24T02:49:03.641Z,96.70
2019-03-24T02:51:37.322Z,96.90
2019-03-24T02:54:11.002Z,96.90
2019-03-24T03:00:31.261Z,96.90
2019-03-24T03:03:05.029Z,97.10
2019-03-24T03:05:38.832Z,97.00
2019-03-24T03:08:12.508Z,96.90
2019-03-24T03:10:46.291Z,96.90
2019-03-24T03:17:06.293Z,97.10
2019-03-24T03:19:40.171Z,97.10
2019-03-24T03:22:13.914Z,97.00
2019-03-24T03:24:47.515Z,96.90
2019-03-24T03:27:21.285Z,96.90
2019-03-24T03:29:54.922Z,96.90
2019-03-24T03:32:28.617Z,97.30
2019-03-24T03:35:02.314Z,96.90
2019-03-24T03:37:36.489Z,96.90
2019-03-24T03:40:11.134Z,97.10
2019-03-24T03:42:45.366Z,97.10
2019-03-24T03:45:22.054Z,97.10
2019-03-24T03:47:56.414Z,97.10
2019-03-24T03:50:30.094Z,97.10
2019-03-24T03:53:03.707Z,97.30
2019-03-24T03:55:37.343Z,97.30
2019-03-24T03:58:10.984Z,97.50
2019-03-24T04:00:46.152Z,97.60
2019-03-24T04:03:19.829Z,97.80
2019-03-24T04:05:53.549Z,97.90
2019-03-24T04:08:27.187Z,97.90
2019-03-24T04:11:00.797Z,98.20
2019-03-24T04:13:34.408Z,98.30
2019-03-24T04:16:08.150Z,98.40
2019-03-24T04:18:41.864Z,98.70
2019-03-24T04:21:15.563Z,98.80
2019-03-24T04:23:49.150Z,99.00
2019-03-24T04:30:00.445Z,99.20
2019-03-24T04:32:34.190Z,99.30
2019-03-24T04:35:09.090Z,99.30
2019-03-24T04:37:42.855Z,99.30
2019-03-24T04:40:16.583Z,99.40
2019-03-24T04:46:37.264Z,99.50
2019-03-24T04:49:10.876Z,99.50
2019-03-24T04:51:44.822Z,99.60
2019-03-24T04:54:18.494Z,99.70
2019-03-24T04:56:52.288Z,99.70
2019-03-24T04:59:25.952Z,99.70
2019-03-24T05:01:59.558Z,99.70
2019-03-24T05:04:33.269Z,99.80
2019-03-24T05:07:07.069Z,99.90
2019-03-24T05:09:41.585Z,99.80
2019-03-24T05:12:15.187Z,99.80
2019-03-24T05:14:49.022Z,99.70
2019-03-24T05:17:27.010Z,99.70
2019-03-24T05:19:58.002Z,99.70
2019-03-24T05:22:31.690Z,99.70
2019-03-24T05:25:06.050Z,99.60
2019-03-24T05:27:39.726Z,99.60
2019-03-24T05:30:13.568Z,99.60
2019-03-24T05:32:47.259Z,99.50
2019-03-24T05:35:21.022Z,99.40
2019-03-24T05:37:54.685Z,99.40
2019-03-24T05:40:28.498Z,99.40
2019-03-24T05:43:02.167Z,99.40
2019-03-24T05:45:35.832Z,99.30
2019-03-24T05:48:09.548Z,99.30
2019-03-24T05:50:43.464Z,99.10
2019-03-24T05:53:17.045Z,99.00
2019-03-24T05:55:50.774Z,99.30
2019-03-24T05:58:24.451Z,98.80
2019-03-24T06:00:58.111Z,98.70
2019-03-24T06:03:31.774Z,98.30
2019-03-24T06:06:05.540Z,98.00
2019-03-24T06:08:39.263Z,98.00
2019-03-24T06:11:13.043Z,98.00
2019-03-24T06:13:46.848Z,97.70
2019-03-24T06:16:20.449Z,97.90
2019-03-24T06:18:54.275Z,97.30
2019-03-24T06:21:27.908Z,97.40
2019-03-24T06:24:01.573Z,97.30
2019-03-24T06:26:35.274Z,97.00
2019-03-24T06:29:08.871Z,96.80
2019-03-24T06:31:42.597Z,96.80
2019-03-24T06:34:16.281Z,96.70
2019-03-24T06:36:50.012Z,96.50
2019-03-24T06:39:23.685Z,96.40
2019-03-24T06:45:34.889Z,95.70
2019-03-24T06:48:08.538Z,95.70
2019-03-24T06:50:43.229Z,95.60
2019-03-24T06:53:16.859Z,95.10
2019-03-24T06:55:50.419Z,95.10
2019-03-24T07:02:01.318Z,95.10
2019-03-24T07:04:35.061Z,95.30
2019-03-24T07:07:08.699Z,95.20
2019-03-24T07:09:42.371Z,95.20
2019-03-24T07:12:16.055Z,95.50
2019-03-24T07:14:49.685Z,95.40
2019-03-24T07:17:23.380Z,95.50
2019-03-24T07:19:56.990Z,95.20
2019-03-24T07:22:30.667Z,95.10
2019-03-24T07:25:05.505Z,95.30
2019-03-24T07:27:40.633Z,95.40
2019-03-24T07:30:14.625Z,95.40
2019-03-24T07:32:48.257Z,95.10
2019-03-24T07:35:21.865Z,94.60
2019-03-24T07:37:55.520Z,94.70
2019-03-24T07:40:30.589Z,94.90
2019-03-24T07:43:04.355Z,94.60
2019-03-24T07:45:38.209Z,94.60
2019-03-24T07:48:18.943Z,94.90
2019-03-24T07:50:47.315Z,94.70
2019-03-24T07:53:20.937Z,94.50
2019-03-24T07:55:54.661Z,94.50
2019-03-24T07:58:28.346Z,94.70
2019-03-24T08:01:02.034Z,94.40
2019-03-24T08:03:35.650Z,94.10
2019-03-24T08:06:09.440Z,93.80
2019-03-24T08:08:44.681Z,93.90
2019-03-24T08:11:18.420Z,93.70
2019-03-24T08:13:54.241Z,93.40
2019-03-24T08:16:30.978Z,93.20
2019-03-24T08:19:04.722Z,93.20
2019-03-24T08:21:38.562Z,92.90
2019-03-24T08:24:12.363Z,92.80
2019-03-24T08:26:46.020Z,92.40
2019-03-24T08:29:19.683Z,92.60
2019-03-24T08:31:53.347Z,92.70
2019-03-24T08:34:27.068Z,92.50
2019-03-24T08:37:00.809Z,92.10
2019-03-24T08:39:34.406Z,92.00
2019-03-24T08:42:08.106Z,92.30
2019-03-24T08:44:41.844Z,92.00
2019-03-24T08:47:16.016Z,91.90
2019-03-24T08:49:49.735Z,91.40
2019-03-24T08:52:23.377Z,91.30
2019-03-24T08:54:58.763Z,90.40
2019-03-24T09:01:18.462Z,90.10
2019-03-24T09:03:52.188Z,89.20
2019-03-24T09:06:27.854Z,89.20
2019-03-24T09:09:01.683Z,89.90
2019-03-24T09:11:35.439Z,90.10
2019-03-24T09:17:55.551Z,90.40
2019-03-24T09:20:29.393Z,89.30
2019-03-24T09:23:03.803Z,86.80
2019-03-24T09:25:37.506Z,86.40
2019-03-24T09:28:11.290Z,89.60
2019-03-24T09:30:45.418Z,89.50
2019-03-24T09:33:19.059Z,90.00
2019-03-24T09:35:52.776Z,88.30
2019-03-24T09:38:27.515Z,87.30
2019-03-24T09:41:04.214Z,86.80
2019-03-24T09:43:38.633Z,87.40
2019-03-24T09:46:12.312Z,86.70
2019-03-24T09:48:46.011Z,85.50
2019-03-24T09:51:21.185Z,85.90
2019-03-24T09:53:55.097Z,86.40
2019-03-24T09:56:29.056Z,87.20
2019-03-24T09:59:02.739Z,84.50
2019-03-24T10:01:36.716Z,84.40
2019-03-24T10:04:10.515Z,84.80
2019-03-24T10:06:44.399Z,83.50
2019-03-24T10:09:18.639Z,82.60
2019-03-24T10:11:52.768Z,81.10
2019-03-24T10:14:26.406Z,80.10
2019-03-24T10:17:00.111Z,79.20
2019-03-24T10:19:33.710Z,80.10
2019-03-24T10:22:07.396Z,80.20
2019-03-24T10:24:41.038Z,80.90
2019-03-24T10:27:14.656Z,79.30
2019-03-24T10:29:48.312Z,77.80
2019-03-24T10:32:22.284Z,78.20
2019-03-24T10:34:56.010Z,79.40
2019-03-24T10:37:29.798Z,77.50
2019-03-24T10:40:04.085Z,77.40
2019-03-24T10:42:38.101Z,80.50
2019-03-24T10:45:12.520Z,79.30
2019-03-24T10:47:46.359Z,78.70
2019-03-24T10:50:20.132Z,79.10
2019-03-24T10:52:53.734Z,78.20
2019-03-24T10:55:27.335Z,76.10
2019-03-24T11:01:38.446Z,75.30
2019-03-24T11:04:12.033Z,77.80
2019-03-24T11:06:45.708Z,79.70
2019-03-24T11:09:19.336Z,80.20
2019-03-24T11:11:53.044Z,79.00
2019-03-24T11:18:04.390Z,74.10
2019-03-24T11:20:38.114Z,73.50
2019-03-24T11:23:13.951Z,73.30
2019-03-24T11:25:47.584Z,76.50
2019-03-24T11:28:21.241Z,78.40
2019-03-24T11:30:55.224Z,78.20
2019-03-24T11:33:29.707Z,77.70
2019-03-24T11:36:03.500Z,79.20
2019-03-24T11:38:37.298Z,79.60
2019-03-24T11:41:10.828Z,80.10
2019-03-24T11:43:44.538Z,77.50
2019-03-24T11:46:18.125Z,75.80
2019-03-24T11:48:51.769Z,76.90
2019-03-24T11:51:25.444Z,73.20
2019-03-24T11:53:59.173Z,70.80
2019-03-24T11:56:32.847Z,71.80
2019-03-24T11:59:06.470Z,71.80
2019-03-24T12:01:40.143Z,72.70
2019-03-24T12:04:13.767Z,73.30
2019-03-24T12:06:47.441Z,72.90
2019-03-24T12:09:21.090Z,74.50
2019-03-24T12:11:55.311Z,76.40
2019-03-24T12:14:29.053Z,77.50
2019-03-24T12:17:02.872Z,77.80
2019-03-24T12:19:36.411Z,77.30
2019-03-24T12:22:10.111Z,76.80
2019-03-24T12:24:43.859Z,76.10
2019-03-24T12:27:17.568Z,77.50
2019-03-24T12:29:51.167Z,77.70
2019-03-24T12:32:25.402Z,79.60
2019-03-24T12:34:58.990Z,77.50
2019-03-24T12:37:32.689Z,77.30
2019-03-24T12:40:07.729Z,79.60
2019-03-24T12:42:41.524Z,80.00
2019-03-24T12:45:15.451Z,79.80
2019-03-24T12:47:49.156Z,78.30
2019-03-24T12:50:31.069Z,77.00
2019-03-24T12:52:58.039Z,75.50
2019-03-24T12:55:31.644Z,76.50
2019-03-24T12:58:05.454Z,77.00
2019-03-24T13:00:40.400Z,74.30
2019-03-24T13:03:14.051Z,74.80
2019-03-24T13:05:47.724Z,74.60
2019-03-24T13:08:21.491Z,75.30
2019-03-24T13:10:55.283Z,71.40
2019-03-24T13:13:29.831Z,73.70
2019-03-24T13:16:03.541Z,73.40
2019-03-24T13:18:37.098Z,72.50
2019-03-24T13:21:10.968Z,71.40
2019-03-24T13:23:44.583Z,72.80
2019-03-24T13:26:18.254Z,73.70
2019-03-24T13:32:23.765Z,75.80
2019-03-24T13:34:57.751Z,73.50
2019-03-24T13:37:32.041Z,71.00
2019-03-24T13:40:06.251Z,72.20
2019-03-24T13:42:41.857Z,73.10
2019-03-24T13:49:01.915Z,71.00
2019-03-24T13:51:35.508Z,72.90
2019-03-24T13:54:09.245Z,73.70
2019-03-24T13:56:42.845Z,73.30
2019-03-24T13:59:16.520Z,71.00
2019-03-24T14:01:51.119Z,69.70
2019-03-24T14:04:24.907Z,70.40
2019-03-24T14:06:58.646Z,71.10
2019-03-24T14:09:32.429Z,71.20
2019-03-24T14:12:06.325Z,69.60
2019-03-24T14:14:40.074Z,67.00
2019-03-24T14:17:13.712Z,63.60
2019-03-24T14:19:47.376Z,62.70
2019-03-24T14:22:21.012Z,63.60
2019-03-24T14:24:54.791Z,63.30
2019-03-24T14:27:28.611Z,60.90
2019-03-24T14:30:02.928Z,56.70
2019-03-24T14:32:36.505Z,56.20
2019-03-24T14:35:10.621Z,56.20
2019-03-24T14:37:44.345Z,60.60
2019-03-24T14:40:18.092Z,62.60
2019-03-24T14:42:51.703Z,61.80
2019-03-24T14:45:25.421Z,60.60
2019-03-24T14:47:59.078Z,62.10
2019-03-24T14:50:32.679Z,60.50
2019-03-24T14:53:06.719Z,64.10
2019-03-24T14:55:40.292Z,63.40
2019-03-24T14:58:14.062Z,63.60
2019-03-24T15:00:47.880Z,65.80
2019-03-24T15:03:21.781Z,64.40
2019-03-24T15:05:55.635Z,65.50
2019-03-24T15:08:30.241Z,67.40
2019-03-24T15:11:04.309Z,68.10
2019-03-24T15:13:38.052Z,69.20
2019-03-24T15:16:11.844Z,71.30
2019-03-24T15:18:46.829Z,70.30
2019-03-24T15:21:20.681Z,69.50
2019-03-24T15:23:54.419Z,69.30
2019-03-24T15:26:28.058Z,70.30
2019-03-24T15:32:29.741Z,72.70
2019-03-24T15:35:07.570Z,68.70
2019-03-24T15:37:41.181Z,67.60
2019-03-24T15:40:15.211Z,68.30
2019-03-24T15:42:48.960Z,67.80
2019-03-24T15:49:08.801Z,69.60
2019-03-24T15:51:42.441Z,67.10
2019-03-24T15:54:16.103Z,64.10
2019-03-24T15:56:51.045Z,64.70
2019-03-24T15:59:28.886Z,65.20
2019-03-24T16:02:02.771Z,64.90
2019-03-24T16:05:22.131Z,64.70
2019-03-24T16:07:27.817Z,62.70
2019-03-24T16:10:02.585Z,63.50
2019-03-24T16:12:42.496Z,60.50
2019-03-24T16:15:19.011Z,60.50
2019-03-24T16:17:57.270Z,60.90
2019-03-24T16:20:32.627Z,59.90
2019-03-24T16:23:06.392Z,61.80
2019-03-24T16:25:40.237Z,63.40
2019-03-24T16:28:14.359Z,64.60
2019-03-24T16:30:48.225Z,66.90
2019-03-24T16:33:21.925Z,70.20
2019-03-24T16:35:55.597Z,71.90
2019-03-24T16:38:29.652Z,73.20
2019-03-24T16:41:03.285Z,73.70
2019-03-24T16:43:38.141Z,74.60
2019-03-24T16:46:11.829Z,75.60
2019-03-24T16:48:45.508Z,75.80
2019-03-24T16:51:19.237Z,76.60
2019-03-24T16:53:53.024Z,77.40
2019-03-24T16:56:26.791Z,79.40
2019-03-24T16:59:00.331Z,80.30
2019-03-24T17:01:35.370Z,81.00
2019-03-24T17:04:09.022Z,82.00
2019-03-24T17:06:43.531Z,82.60
2019-03-24T17:09:17.228Z,83.10
2019-03-24T17:11:50.943Z,83.60
2019-03-24T17:18:02.623Z,84.60
2019-03-24T17:20:36.590Z,86.00
2019-03-24T17:23:10.438Z,85.50
2019-03-24T17:25:44.144Z,85.70
2019-03-24T17:28:18.385Z,86.30
2019-03-24T17:34:23.513Z,87.20
2019-03-24T17:36:58.580Z,88.10
2019-03-24T17:39:32.751Z,88.50
2019-03-24T17:42:06.518Z,89.10
2019-03-24T17:44:43.765Z,89.60
2019-03-24T17:47:17.505Z,90.00
2019-03-24T17:49:51.304Z,90.20
2019-03-24T17:52:25.023Z,90.50
2019-03-24T17:54:58.913Z,90.90
2019-03-24T17:57:32.591Z,91.10
2019-03-24T18:00:12.324Z,91.30
2019-03-24T18:02:45.993Z,91.40
2019-03-24T18:05:19.781Z,91.40
2019-03-24T18:07:53.449Z,91.60
2019-03-24T18:10:27.377Z,91.60
2019-03-24T18:13:01.083Z,92.20
2019-03-24T18:15:34.763Z,91.80
2019-03-24T18:18:08.604Z,91.90
2019-03-24T18:20:42.205Z,92.00
2019-03-24T18:23:16.596Z,92.00
2019-03-24T18:25:50.213Z,92.10
2019-03-24T18:28:23.924Z,91.80
2019-03-24T18:30:57.632Z,91.70
2019-03-24T18:33:31.412Z,91.70
2019-03-24T18:36:05.152Z,91.60
2019-03-24T18:38:38.967Z,92.00
2019-03-24T18:41:12.652Z,91.60
2019-03-24T18:43:46.349Z,91.60
2019-03-24T18:46:21.224Z,91.90
2019-03-24T18:48:54.997Z,91.90
2019-03-24T18:51:28.630Z,92.10
2019-03-24T18:54:02.367Z,92.40
2019-03-24T18:56:36.111Z,92.50
2019-03-24T18:59:09.830Z,92.90
2019-03-24T19:01:43.597Z,92.90
2019-03-24T19:04:17.206Z,93.20
2019-03-24T19:06:50.912Z,93.10
2019-03-24T19:09:24.508Z,93.30
2019-03-24T19:11:58.146Z,93.40
2019-03-24T19:14:31.747Z,93.40
2019-03-24T19:17:05.470Z,93.40
2019-03-24T19:19:39.293Z,93.40
2019-03-24T19:22:13.010Z,93.30
2019-03-24T19:24:46.713Z,93.30
2019-03-24T19:27:20.418Z,93.20
2019-03-24T19:29:54.131Z,93.20
2019-03-24T19:32:28.532Z,93.20
2019-03-24T19:35:02.705Z,93.10
2019-03-24T19:37:36.784Z,92.80
2019-03-24T19:40:27.988Z,93.20
2019-03-24T19:43:01.676Z,92.90
2019-03-24T19:49:13.009Z,92.90
2019-03-24T19:51:46.742Z,93.00
2019-03-24T19:54:20.450Z,93.00
2019-03-24T19:56:54.092Z,93.10
2019-03-24T19:59:27.773Z,93.10
2019-03-24T20:05:47.388Z,93.40
2019-03-24T20:08:21.064Z,93.60
2019-03-24T20:10:55.445Z,93.70
2019-03-24T20:13:29.060Z,93.90
2019-03-24T20:16:04.478Z,94.00
2019-03-24T20:18:38.748Z,94.20
2019-03-24T20:21:12.450Z,94.30
2019-03-24T20:23:46.289Z,94.40
2019-03-24T20:26:19.888Z,94.60
2019-03-24T20:28:53.520Z,94.70
2019-03-24T20:31:28.748Z,94.80
2019-03-24T20:34:02.480Z,94.90
2019-03-24T20:36:36.085Z,95.00
2019-03-24T20:39:10.059Z,95.00
2019-03-24T20:41:43.848Z,95.10
2019-03-24T20:44:17.594Z,95.00
2019-03-24T20:46:52.120Z,95.10
2019-03-24T20:49:27.257Z,95.20
2019-03-24T20:52:01.575Z,95.20
2019-03-24T20:54:38.204Z,95.20
2019-03-24T20:57:12.610Z,95.20
2019-03-24T20:59:46.424Z,95.30
2019-03-24T21:02:20.219Z,95.50
2019-03-24T21:04:53.915Z,95.70
2019-03-24T21:07:27.613Z,95.80
2019-03-24T21:10:01.288Z,96.00
2019-03-24T21:12:35.071Z,96.20
2019-03-24T21:15:11.498Z,96.40
2019-03-24T21:17:45.263Z,96.60
2019-03-24T21:20:19.093Z,96.70
2019-03-24T21:22:52.881Z,96.90
2019-03-24T21:25:26.734Z,97.10
2019-03-24T21:28:00.337Z,97.30
2019-03-24T21:30:36.287Z,97.40
2019-03-24T21:33:10.338Z,97.50
2019-03-24T21:35:43.966Z,97.60
2019-03-24T21:38:17.562Z,97.70
2019-03-24T21:40:51.313Z,97.70
2019-03-24T21:43:24.910Z,97.90
2019-03-24T21:45:58.607Z,98.00
2019-03-24T21:48:32.348Z,98.10
2019-03-24T21:51:06.188Z,98.20
2019-03-24T21:53:40.988Z,98.30
2019-03-24T21:56:15.643Z,98.50
2019-03-24T21:58:49.429Z,98.50
2019-03-24T22:05:09.664Z,98.60
2019-03-24T22:07:43.295Z,98.60
2019-03-24T22:10:17.035Z,98.70
2019-03-24T22:12:50.741Z,98.80
2019-03-24T22:15:25.876Z,98.80
2019-03-24T22:21:37.332Z,98.90
2019-03-24T22:24:11.118Z,99.10
2019-03-24T22:26:44.819Z,99.20
2019-03-24T22:29:19.176Z,99.30
2019-03-24T22:31:52.841Z,99.30
2019-03-24T22:34:26.496Z,99.30
2019-03-24T22:37:01.080Z,99.30
2019-03-24T22:39:35.674Z,99.30
2019-03-24T22:42:09.395Z,99.50
2019-03-24T22:44:43.002Z,99.50
2019-03-24T22:47:16.702Z,99.50
2019-03-24T22:49:51.952Z,99.60
2019-03-24T22:52:25.765Z,99.60
2019-03-24T22:54:59.475Z,99.80
2019-03-24T22:57:33.470Z,99.80
2019-03-24T23:00:11.882Z,99.80
2019-03-24T23:02:45.732Z,99.90
2019-03-24T23:05:19.525Z,99.90
2019-03-24T23:07:56.403Z,99.90
2019-03-24T23:10:30.091Z,99.90
2019-03-24T23:13:03.815Z,99.90
2019-03-24T23:15:37.497Z,99.90
2019-03-24T23:18:11.158Z,99.90
2019-03-24T23:20:44.869Z,99.90
2019-03-24T23:23:18.489Z,99.90
2019-03-24T23:25:52.285Z,99.90
2019-03-24T23:28:25.932Z,99.90
2019-03-24T23:30:59.725Z,99.90
2019-03-24T23:33:38.599Z,99.90
2019-03-24T23:36:13.379Z,99.90
2019-03-24T23:38:47.205Z,99.90
2019-03-24T23:41:20.882Z,99.90
2019-03-24T23:43:54.716Z,99.90
2019-03-24T23:46:28.484Z,99.90
2019-03-24T23:49:02.151Z,99.90
2019-03-24T23:51:35.998Z,99.90
2019-03-24T23:54:09.711Z,99.90
2019-03-24T23:56:43.375Z,99.90
2019-03-24T23:59:17.107Z,99.90
